ΕΜΥ, Εθνική Μετεωρολογική Υπηρεσία - Δελτία Καιρού, Προγνώσεις

ΑΕΡΟΝΑΥΤΙΛΙΑ

GREEK AIRPORTS CODES

LGSK 301620Z 00000KT 9999 FEW025 21/12 Q1010=

EUROPEAN AIRPORTS CODES

EHAM 301625Z 19009KT 9999 FEW018 18/14 Q1009 NOSIG=